sensor_id;sensor_type;location;lat;lon;timestamp;P1;durP1;ratioP1;P2;durP2;ratioP2
67508;SDS011;54354;44.724;11.284;2023-03-05T00:00:49;22.98;;;15.77;;
67508;SDS011;54354;44.724;11.284;2023-03-05T00:03:15;26.02;;;16.65;;
67508;SDS011;54354;44.724;11.284;2023-03-05T00:05:40;26.23;;;17.13;;
67508;SDS011;54354;44.724;11.284;2023-03-05T00:08:06;24.83;;;17.50;;
67508;SDS011;54354;44.724;11.284;2023-03-05T00:10:31;27.52;;;18.25;;
67508;SDS011;54354;44.724;11.284;2023-03-05T00:12:57;27.63;;;17.25;;
67508;SDS011;54354;44.724;11.284;2023-03-05T00:15:22;23.80;;;16.63;;
67508;SDS011;54354;44.724;11.284;2023-03-05T00:17:48;24.40;;;16.65;;
67508;SDS011;54354;44.724;11.284;2023-03-05T00:20:13;25.60;;;16.13;;
67508;SDS011;54354;44.724;11.284;2023-03-05T00:22:39;23.65;;;15.98;;
67508;SDS011;54354;44.724;11.284;2023-03-05T00:25:05;27.15;;;16.88;;
67508;SDS011;54354;44.724;11.284;2023-03-05T00:27:30;25.13;;;16.05;;
67508;SDS011;54354;44.724;11.284;2023-03-05T00:29:56;22.67;;;15.73;;
67508;SDS011;54354;44.724;11.284;2023-03-05T00:32:21;21.65;;;15.60;;
67508;SDS011;54354;44.724;11.284;2023-03-05T00:34:47;19.70;;;15.32;;
67508;SDS011;54354;44.724;11.284;2023-03-05T00:37:14;21.17;;;15.10;;
67508;SDS011;54354;44.724;11.284;2023-03-05T00:39:40;21.17;;;15.25;;
67508;SDS011;54354;44.724;11.284;2023-03-05T00:42:05;25.35;;;15.25;;
67508;SDS011;54354;44.724;11.284;2023-03-05T00:44:32;24.92;;;16.05;;
67508;SDS011;54354;44.724;11.284;2023-03-05T00:46:58;25.35;;;15.40;;
67508;SDS011;54354;44.724;11.284;2023-03-05T00:49:23;21.70;;;15.75;;
67508;SDS011;54354;44.724;11.284;2023-03-05T00:51:49;25.48;;;15.57;;
67508;SDS011;54354;44.724;11.284;2023-03-05T00:54:15;21.63;;;15.15;;
67508;SDS011;54354;44.724;11.284;2023-03-05T00:56:40;19.65;;;15.35;;
67508;SDS011;54354;44.724;11.284;2023-03-05T00:59:06;24.65;;;16.15;;
67508;SDS011;54354;44.724;11.284;2023-03-05T01:01:31;22.92;;;16.38;;
67508;SDS011;54354;44.724;11.284;2023-03-05T01:03:57;24.25;;;15.88;;
67508;SDS011;54354;44.724;11.284;2023-03-05T01:06:24;28.42;;;16.60;;
67508;SDS011;54354;44.724;11.284;2023-03-05T01:08:49;26.25;;;16.92;;
67508;SDS011;54354;44.724;11.284;2023-03-05T01:11:15;25.30;;;16.60;;
67508;SDS011;54354;44.724;11.284;2023-03-05T01:13:41;26.10;;;16.98;;
67508;SDS011;54354;44.724;11.284;2023-03-05T01:16:06;26.20;;;17.38;;
67508;SDS011;54354;44.724;11.284;2023-03-05T01:18:32;28.90;;;17.85;;
67508;SDS011;54354;44.724;11.284;2023-03-05T01:20:58;24.50;;;16.63;;
67508;SDS011;54354;44.724;11.284;2023-03-05T01:23:24;28.70;;;17.77;;
67508;SDS011;54354;44.724;11.284;2023-03-05T01:25:53;24.40;;;17.02;;
67508;SDS011;54354;44.724;11.284;2023-03-05T01:28:21;23.63;;;16.73;;
67508;SDS011;54354;44.724;11.284;2023-03-05T01:30:47;22.20;;;16.20;;
67508;SDS011;54354;44.724;11.284;2023-03-05T01:33:13;26.70;;;17.35;;
67508;SDS011;54354;44.724;11.284;2023-03-05T01:35:38;26.13;;;17.63;;
67508;SDS011;54354;44.724;11.284;2023-03-05T01:38:04;26.50;;;16.90;;
67508;SDS011;54354;44.724;11.284;2023-03-05T01:40:29;26.00;;;18.08;;
67508;SDS011;54354;44.724;11.284;2023-03-05T01:42:57;26.27;;;18.50;;
67508;SDS011;54354;44.724;11.284;2023-03-05T01:45:25;22.70;;;17.27;;
67508;SDS011;54354;44.724;11.284;2023-03-05T01:47:50;28.65;;;17.85;;
67508;SDS011;54354;44.724;11.284;2023-03-05T01:50:16;27.58;;;19.08;;
67508;SDS011;54354;44.724;11.284;2023-03-05T01:52:52;29.42;;;19.17;;
67508;SDS011;54354;44.724;11.284;2023-03-05T01:55:23;31.63;;;18.60;;
67508;SDS011;54354;44.724;11.284;2023-03-05T01:58:02;27.75;;;19.45;;
67508;SDS011;54354;44.724;11.284;2023-03-05T02:00:33;29.88;;;19.75;;
67508;SDS011;54354;44.724;11.284;2023-03-05T02:03:02;27.83;;;18.55;;
67508;SDS011;54354;44.724;11.284;2023-03-05T02:05:32;30.38;;;18.65;;
67508;SDS011;54354;44.724;11.284;2023-03-05T02:08:00;28.27;;;18.10;;
67508;SDS011;54354;44.724;11.284;2023-03-05T02:10:28;28.60;;;18.95;;
67508;SDS011;54354;44.724;11.284;2023-03-05T02:12:57;25.70;;;18.33;;
67508;SDS011;54354;44.724;11.284;2023-03-05T02:15:24;28.40;;;18.63;;
67508;SDS011;54354;44.724;11.284;2023-03-05T02:17:50;26.58;;;19.08;;
67508;SDS011;54354;44.724;11.284;2023-03-05T02:20:17;28.25;;;17.80;;
67508;SDS011;54354;44.724;11.284;2023-03-05T02:22:45;35.35;;;18.85;;
67508;SDS011;54354;44.724;11.284;2023-03-05T02:25:14;28.13;;;18.30;;
67508;SDS011;54354;44.724;11.284;2023-03-05T02:27:42;24.23;;;17.45;;
67508;SDS011;54354;44.724;11.284;2023-03-05T02:32:36;24.95;;;17.58;;
67508;SDS011;54354;44.724;11.284;2023-03-05T02:35:03;26.35;;;17.73;;
67508;SDS011;54354;44.724;11.284;2023-03-05T02:37:29;29.10;;;18.38;;
67508;SDS011;54354;44.724;11.284;2023-03-05T02:39:55;23.90;;;18.15;;
67508;SDS011;54354;44.724;11.284;2023-03-05T02:42:21;24.25;;;17.83;;
67508;SDS011;54354;44.724;11.284;2023-03-05T02:44:46;26.70;;;17.88;;
67508;SDS011;54354;44.724;11.284;2023-03-05T02:47:12;23.35;;;17.55;;
67508;SDS011;54354;44.724;11.284;2023-03-05T02:49:38;23.52;;;17.67;;
67508;SDS011;54354;44.724;11.284;2023-03-05T02:52:03;22.95;;;16.80;;
67508;SDS011;54354;44.724;11.284;2023-03-05T02:54:29;25.98;;;17.13;;
67508;SDS011;54354;44.724;11.284;2023-03-05T02:56:55;23.38;;;16.38;;
67508;SDS011;54354;44.724;11.284;2023-03-05T02:59:21;26.08;;;17.10;;
67508;SDS011;54354;44.724;11.284;2023-03-05T03:01:46;25.63;;;16.98;;
67508;SDS011;54354;44.724;11.284;2023-03-05T03:04:12;20.65;;;15.85;;
67508;SDS011;54354;44.724;11.284;2023-03-05T03:06:37;22.17;;;15.70;;
67508;SDS011;54354;44.724;11.284;2023-03-05T03:09:03;22.15;;;15.90;;
67508;SDS011;54354;44.724;11.284;2023-03-05T03:11:28;22.05;;;17.02;;
67508;SDS011;54354;44.724;11.284;2023-03-05T03:13:54;21.40;;;16.23;;
67508;SDS011;54354;44.724;11.284;2023-03-05T03:16:20;24.35;;;17.15;;
67508;SDS011;54354;44.724;11.284;2023-03-05T03:18:45;22.27;;;16.58;;
67508;SDS011;54354;44.724;11.284;2023-03-05T03:21:16;22.90;;;16.33;;
67508;SDS011;54354;44.724;11.284;2023-03-05T03:23:46;21.80;;;16.88;;
67508;SDS011;54354;44.724;11.284;2023-03-05T03:26:12;25.70;;;16.80;;
67508;SDS011;54354;44.724;11.284;2023-03-05T03:28:37;28.98;;;16.88;;
67508;SDS011;54354;44.724;11.284;2023-03-05T03:31:03;27.45;;;16.27;;
67508;SDS011;54354;44.724;11.284;2023-03-05T03:33:29;22.95;;;16.23;;
67508;SDS011;54354;44.724;11.284;2023-03-05T03:35:55;22.80;;;16.33;;
67508;SDS011;54354;44.724;11.284;2023-03-05T03:38:21;21.35;;;15.80;;
67508;SDS011;54354;44.724;11.284;2023-03-05T03:40:46;22.25;;;16.42;;
67508;SDS011;54354;44.724;11.284;2023-03-05T03:43:12;22.60;;;16.15;;
67508;SDS011;54354;44.724;11.284;2023-03-05T03:45:41;25.33;;;16.55;;
67508;SDS011;54354;44.724;11.284;2023-03-05T03:48:08;23.02;;;16.73;;
67508;SDS011;54354;44.724;11.284;2023-03-05T03:50:37;24.30;;;16.23;;
67508;SDS011;54354;44.724;11.284;2023-03-05T03:53:03;21.77;;;15.43;;
67508;SDS011;54354;44.724;11.284;2023-03-05T03:55:28;20.38;;;16.02;;
67508;SDS011;54354;44.724;11.284;2023-03-05T03:57:54;24.00;;;15.93;;
67508;SDS011;54354;44.724;11.284;2023-03-05T04:00:19;22.52;;;15.50;;
67508;SDS011;54354;44.724;11.284;2023-03-05T04:02:45;23.27;;;16.45;;
67508;SDS011;54354;44.724;11.284;2023-03-05T04:05:11;22.05;;;15.90;;
67508;SDS011;54354;44.724;11.284;2023-03-05T04:07:36;18.00;;;14.93;;
67508;SDS011;54354;44.724;11.284;2023-03-05T04:10:02;24.70;;;16.50;;
67508;SDS011;54354;44.724;11.284;2023-03-05T04:12:28;23.38;;;15.38;;
67508;SDS011;54354;44.724;11.284;2023-03-05T04:14:54;20.90;;;15.30;;
67508;SDS011;54354;44.724;11.284;2023-03-05T04:17:19;23.92;;;15.95;;
67508;SDS011;54354;44.724;11.284;2023-03-05T04:19:45;23.05;;;15.70;;
67508;SDS011;54354;44.724;11.284;2023-03-05T04:22:14;22.38;;;15.48;;
67508;SDS011;54354;44.724;11.284;2023-03-05T04:24:40;20.95;;;15.55;;
67508;SDS011;54354;44.724;11.284;2023-03-05T04:27:07;20.00;;;15.18;;
67508;SDS011;54354;44.724;11.284;2023-03-05T04:29:32;25.67;;;15.23;;
67508;SDS011;54354;44.724;11.284;2023-03-05T04:31:58;23.48;;;15.57;;
67508;SDS011;54354;44.724;11.284;2023-03-05T04:34:24;23.23;;;15.77;;
67508;SDS011;54354;44.724;11.284;2023-03-05T04:36:49;23.38;;;16.25;;
67508;SDS011;54354;44.724;11.284;2023-03-05T04:39:15;23.08;;;15.40;;
67508;SDS011;54354;44.724;11.284;2023-03-05T04:41:40;19.70;;;15.63;;
67508;SDS011;54354;44.724;11.284;2023-03-05T04:44:06;21.27;;;15.07;;
67508;SDS011;54354;44.724;11.284;2023-03-05T04:46:31;20.67;;;15.63;;
67508;SDS011;54354;44.724;11.284;2023-03-05T04:48:57;25.95;;;15.88;;
67508;SDS011;54354;44.724;11.284;2023-03-05T04:51:23;22.33;;;15.45;;
67508;SDS011;54354;44.724;11.284;2023-03-05T04:53:49;26.23;;;15.52;;
67508;SDS011;54354;44.724;11.284;2023-03-05T04:56:15;22.63;;;14.93;;
67508;SDS011;54354;44.724;11.284;2023-03-05T04:58:40;21.25;;;14.40;;
67508;SDS011;54354;44.724;11.284;2023-03-05T05:01:06;19.13;;;15.25;;
67508;SDS011;54354;44.724;11.284;2023-03-05T05:03:32;19.85;;;14.45;;
67508;SDS011;54354;44.724;11.284;2023-03-05T05:05:58;20.33;;;13.90;;
67508;SDS011;54354;44.724;11.284;2023-03-05T05:08:25;19.77;;;13.27;;
67508;SDS011;54354;44.724;11.284;2023-03-05T05:11:10;15.93;;;12.63;;
67508;SDS011;54354;44.724;11.284;2023-03-05T05:13:38;18.40;;;13.00;;
67508;SDS011;54354;44.724;11.284;2023-03-05T05:16:06;19.17;;;12.88;;
67508;SDS011;54354;44.724;11.284;2023-03-05T05:18:33;19.92;;;13.27;;
67508;SDS011;54354;44.724;11.284;2023-03-05T05:20:59;18.15;;;14.02;;
67508;SDS011;54354;44.724;11.284;2023-03-05T05:23:25;17.75;;;13.70;;
67508;SDS011;54354;44.724;11.284;2023-03-05T05:26:00;19.15;;;13.27;;
67508;SDS011;54354;44.724;11.284;2023-03-05T05:28:27;20.45;;;13.43;;
67508;SDS011;54354;44.724;11.284;2023-03-05T05:30:53;16.83;;;13.02;;
67508;SDS011;54354;44.724;11.284;2023-03-05T05:33:19;18.70;;;13.32;;
67508;SDS011;54354;44.724;11.284;2023-03-05T05:35:45;18.10;;;13.02;;
67508;SDS011;54354;44.724;11.284;2023-03-05T05:38:10;17.15;;;13.15;;
67508;SDS011;54354;44.724;11.284;2023-03-05T05:40:36;21.70;;;13.07;;
67508;SDS011;54354;44.724;11.284;2023-03-05T05:43:01;21.08;;;13.95;;
67508;SDS011;54354;44.724;11.284;2023-03-05T05:45:27;19.33;;;13.43;;
67508;SDS011;54354;44.724;11.284;2023-03-05T05:47:53;20.35;;;12.45;;
67508;SDS011;54354;44.724;11.284;2023-03-05T05:50:18;19.60;;;13.35;;
67508;SDS011;54354;44.724;11.284;2023-03-05T05:52:45;18.23;;;12.77;;
67508;SDS011;54354;44.724;11.284;2023-03-05T05:55:11;20.95;;;14.35;;
67508;SDS011;54354;44.724;11.284;2023-03-05T05:57:37;17.33;;;11.30;;
67508;SDS011;54354;44.724;11.284;2023-03-05T06:00:05;18.60;;;12.93;;
67508;SDS011;54354;44.724;11.284;2023-03-05T06:02:40;17.60;;;12.95;;
67508;SDS011;54354;44.724;11.284;2023-03-05T06:05:06;16.63;;;12.02;;
67508;SDS011;54354;44.724;11.284;2023-03-05T06:07:33;19.35;;;12.68;;
67508;SDS011;54354;44.724;11.284;2023-03-05T06:09:59;19.52;;;13.25;;
67508;SDS011;54354;44.724;11.284;2023-03-05T06:12:24;25.65;;;13.95;;
67508;SDS011;54354;44.724;11.284;2023-03-05T06:14:50;19.45;;;12.43;;
67508;SDS011;54354;44.724;11.284;2023-03-05T06:17:15;17.67;;;12.38;;
67508;SDS011;54354;44.724;11.284;2023-03-05T06:19:40;15.68;;;11.55;;
67508;SDS011;54354;44.724;11.284;2023-03-05T06:22:06;17.80;;;11.85;;
67508;SDS011;54354;44.724;11.284;2023-03-05T06:24:32;20.38;;;12.25;;
67508;SDS011;54354;44.724;11.284;2023-03-05T06:26:57;17.60;;;11.45;;
67508;SDS011;54354;44.724;11.284;2023-03-05T06:29:22;21.15;;;11.60;;
67508;SDS011;54354;44.724;11.284;2023-03-05T06:31:48;18.48;;;12.10;;
67508;SDS011;54354;44.724;11.284;2023-03-05T06:34:13;17.50;;;11.35;;
67508;SDS011;54354;44.724;11.284;2023-03-05T06:36:39;21.88;;;13.52;;
67508;SDS011;54354;44.724;11.284;2023-03-05T06:39:05;27.52;;;12.60;;
67508;SDS011;54354;44.724;11.284;2023-03-05T06:41:31;22.98;;;12.48;;
67508;SDS011;54354;44.724;11.284;2023-03-05T06:43:58;16.70;;;10.68;;
67508;SDS011;54354;44.724;11.284;2023-03-05T06:46:27;15.80;;;11.60;;
67508;SDS011;54354;44.724;11.284;2023-03-05T06:48:54;15.20;;;10.85;;
67508;SDS011;54354;44.724;11.284;2023-03-05T06:51:22;17.60;;;10.93;;
67508;SDS011;54354;44.724;11.284;2023-03-05T06:53:50;13.90;;;9.98;;
67508;SDS011;54354;44.724;11.284;2023-03-05T06:56:16;14.93;;;10.30;;
67508;SDS011;54354;44.724;11.284;2023-03-05T06:58:43;13.68;;;10.07;;
67508;SDS011;54354;44.724;11.284;2023-03-05T07:01:10;16.52;;;10.27;;
67508;SDS011;54354;44.724;11.284;2023-03-05T07:03:36;13.63;;;10.15;;
67508;SDS011;54354;44.724;11.284;2023-03-05T07:06:06;14.73;;;10.52;;
67508;SDS011;54354;44.724;11.284;2023-03-05T07:08:33;17.52;;;11.30;;
67508;SDS011;54354;44.724;11.284;2023-03-05T07:10:59;13.50;;;10.13;;
67508;SDS011;54354;44.724;11.284;2023-03-05T07:13:25;14.50;;;9.75;;
67508;SDS011;54354;44.724;11.284;2023-03-05T07:15:51;19.77;;;9.65;;
67508;SDS011;54354;44.724;11.284;2023-03-05T07:18:17;11.73;;;9.20;;
67508;SDS011;54354;44.724;11.284;2023-03-05T07:20:43;15.68;;;8.98;;
67508;SDS011;54354;44.724;11.284;2023-03-05T07:23:08;13.65;;;9.45;;
67508;SDS011;54354;44.724;11.284;2023-03-05T07:25:35;14.05;;;9.45;;
67508;SDS011;54354;44.724;11.284;2023-03-05T07:28:02;17.42;;;10.45;;
67508;SDS011;54354;44.724;11.284;2023-03-05T07:30:29;15.32;;;9.50;;
67508;SDS011;54354;44.724;11.284;2023-03-05T07:32:55;10.70;;;9.60;;
67508;SDS011;54354;44.724;11.284;2023-03-05T07:35:21;13.95;;;9.95;;
67508;SDS011;54354;44.724;11.284;2023-03-05T07:37:48;15.38;;;9.25;;
67508;SDS011;54354;44.724;11.284;2023-03-05T07:40:13;11.95;;;9.20;;
67508;SDS011;54354;44.724;11.284;2023-03-05T07:42:39;13.02;;;8.68;;
67508;SDS011;54354;44.724;11.284;2023-03-05T07:45:14;14.77;;;10.85;;
67508;SDS011;54354;44.724;11.284;2023-03-05T07:47:39;19.80;;;9.95;;
67508;SDS011;54354;44.724;11.284;2023-03-05T07:50:05;15.80;;;9.32;;
67508;SDS011;54354;44.724;11.284;2023-03-05T07:52:31;17.23;;;10.23;;
67508;SDS011;54354;44.724;11.284;2023-03-05T07:54:56;16.83;;;10.20;;
67508;SDS011;54354;44.724;11.284;2023-03-05T07:57:22;16.25;;;10.05;;
67508;SDS011;54354;44.724;11.284;2023-03-05T07:59:47;15.32;;;10.18;;
67508;SDS011;54354;44.724;11.284;2023-03-05T08:02:13;25.42;;;10.88;;
67508;SDS011;54354;44.724;11.284;2023-03-05T08:04:39;18.25;;;10.25;;
67508;SDS011;54354;44.724;11.284;2023-03-05T08:07:06;14.90;;;9.63;;
67508;SDS011;54354;44.724;11.284;2023-03-05T08:09:31;17.15;;;9.75;;
67508;SDS011;54354;44.724;11.284;2023-03-05T08:11:57;14.48;;;10.02;;
67508;SDS011;54354;44.724;11.284;2023-03-05T08:14:23;13.15;;;10.13;;
67508;SDS011;54354;44.724;11.284;2023-03-05T08:16:48;18.13;;;10.15;;
67508;SDS011;54354;44.724;11.284;2023-03-05T08:19:17;15.07;;;9.60;;
67508;SDS011;54354;44.724;11.284;2023-03-05T08:21:44;17.27;;;9.70;;
67508;SDS011;54354;44.724;11.284;2023-03-05T08:24:10;18.98;;;11.07;;
67508;SDS011;54354;44.724;11.284;2023-03-05T08:26:36;13.85;;;10.10;;
67508;SDS011;54354;44.724;11.284;2023-03-05T08:29:02;14.70;;;10.70;;
67508;SDS011;54354;44.724;11.284;2023-03-05T08:31:29;15.73;;;11.07;;
67508;SDS011;54354;44.724;11.284;2023-03-05T08:33:55;14.73;;;10.32;;
67508;SDS011;54354;44.724;11.284;2023-03-05T08:36:23;17.73;;;11.30;;
67508;SDS011;54354;44.724;11.284;2023-03-05T08:38:49;19.00;;;10.80;;
67508;SDS011;54354;44.724;11.284;2023-03-05T08:41:15;24.90;;;11.65;;
67508;SDS011;54354;44.724;11.284;2023-03-05T08:43:41;20.48;;;10.43;;
67508;SDS011;54354;44.724;11.284;2023-03-05T08:46:08;20.67;;;10.82;;
67508;SDS011;54354;44.724;11.284;2023-03-05T08:48:36;14.60;;;10.90;;
67508;SDS011;54354;44.724;11.284;2023-03-05T08:51:15;18.25;;;11.48;;
67508;SDS011;54354;44.724;11.284;2023-03-05T08:53:43;17.60;;;10.05;;
67508;SDS011;54354;44.724;11.284;2023-03-05T08:56:09;16.85;;;11.55;;
67508;SDS011;54354;44.724;11.284;2023-03-05T08:58:35;15.32;;;10.25;;
67508;SDS011;54354;44.724;11.284;2023-03-05T09:01:01;18.23;;;10.57;;
67508;SDS011;54354;44.724;11.284;2023-03-05T09:03:27;22.98;;;11.15;;
67508;SDS011;54354;44.724;11.284;2023-03-05T09:05:52;14.70;;;10.57;;
67508;SDS011;54354;44.724;11.284;2023-03-05T09:08:18;17.60;;;10.75;;
67508;SDS011;54354;44.724;11.284;2023-03-05T09:10:44;16.13;;;11.60;;
67508;SDS011;54354;44.724;11.284;2023-03-05T09:13:10;14.52;;;11.60;;
67508;SDS011;54354;44.724;11.284;2023-03-05T09:15:36;15.88;;;11.55;;
67508;SDS011;54354;44.724;11.284;2023-03-05T09:18:02;17.65;;;11.07;;
67508;SDS011;54354;44.724;11.284;2023-03-05T09:20:28;20.63;;;11.88;;
67508;SDS011;54354;44.724;11.284;2023-03-05T09:22:54;17.30;;;12.05;;
67508;SDS011;54354;44.724;11.284;2023-03-05T09:25:19;18.17;;;11.82;;
67508;SDS011;54354;44.724;11.284;2023-03-05T09:27:45;17.80;;;11.50;;
67508;SDS011;54354;44.724;11.284;2023-03-05T09:30:11;16.77;;;10.93;;
67508;SDS011;54354;44.724;11.284;2023-03-05T09:32:38;17.92;;;11.82;;
67508;SDS011;54354;44.724;11.284;2023-03-05T09:35:03;23.60;;;12.25;;
67508;SDS011;54354;44.724;11.284;2023-03-05T09:37:29;22.50;;;12.32;;
67508;SDS011;54354;44.724;11.284;2023-03-05T09:39:55;17.27;;;12.00;;
67508;SDS011;54354;44.724;11.284;2023-03-05T09:55:42;22.00;;;12.52;;
67508;SDS011;54354;44.724;11.284;2023-03-05T10:00:56;21.20;;;11.88;;
67508;SDS011;54354;44.724;11.284;2023-03-05T10:03:30;16.30;;;11.48;;
67508;SDS011;54354;44.724;11.284;2023-03-05T10:06:14;22.20;;;13.73;;
67508;SDS011;54354;44.724;11.284;2023-03-05T10:08:51;21.42;;;13.20;;
67508;SDS011;54354;44.724;11.284;2023-03-05T10:11:31;17.88;;;12.80;;
67508;SDS011;54354;44.724;11.284;2023-03-05T10:13:59;20.77;;;13.90;;
67508;SDS011;54354;44.724;11.284;2023-03-05T10:30:11;17.38;;;12.32;;
67508;SDS011;54354;44.724;11.284;2023-03-05T10:41:26;21.23;;;11.90;;
67508;SDS011;54354;44.724;11.284;2023-03-05T10:44:15;22.02;;;12.50;;
67508;SDS011;54354;44.724;11.284;2023-03-05T10:46:42;21.05;;;13.45;;
67508;SDS011;54354;44.724;11.284;2023-03-05T10:51:52;19.35;;;13.38;;
67508;SDS011;54354;44.724;11.284;2023-03-05T10:54:31;22.27;;;13.10;;
67508;SDS011;54354;44.724;11.284;2023-03-05T10:57:02;21.55;;;12.48;;
67508;SDS011;54354;44.724;11.284;2023-03-05T10:59:27;21.67;;;12.02;;
67508;SDS011;54354;44.724;11.284;2023-03-05T11:02:06;18.67;;;11.00;;
67508;SDS011;54354;44.724;11.284;2023-03-05T11:04:34;20.23;;;11.17;;
67508;SDS011;54354;44.724;11.284;2023-03-05T11:07:04;17.65;;;10.43;;
67508;SDS011;54354;44.724;11.284;2023-03-05T11:12:29;17.45;;;10.48;;
67508;SDS011;54354;44.724;11.284;2023-03-05T11:17:35;17.13;;;11.60;;
67508;SDS011;54354;44.724;11.284;2023-03-05T11:28:19;17.40;;;10.18;;
67508;SDS011;54354;44.724;11.284;2023-03-05T11:30:54;12.88;;;9.30;;
67508;SDS011;54354;44.724;11.284;2023-03-05T11:33:20;17.45;;;10.32;;
67508;SDS011;54354;44.724;11.284;2023-03-05T11:35:48;16.88;;;9.85;;
67508;SDS011;54354;44.724;11.284;2023-03-05T11:38:16;15.10;;;9.75;;
67508;SDS011;54354;44.724;11.284;2023-03-05T11:40:46;17.48;;;10.27;;
67508;SDS011;54354;44.724;11.284;2023-03-05T11:43:14;12.55;;;9.48;;
67508;SDS011;54354;44.724;11.284;2023-03-05T11:45:43;14.55;;;9.95;;
67508;SDS011;54354;44.724;11.284;2023-03-05T11:48:12;20.85;;;10.40;;
67508;SDS011;54354;44.724;11.284;2023-03-05T11:50:43;18.17;;;9.90;;
67508;SDS011;54354;44.724;11.284;2023-03-05T11:53:19;15.43;;;9.68;;
67508;SDS011;54354;44.724;11.284;2023-03-05T11:55:49;19.95;;;10.43;;
67508;SDS011;54354;44.724;11.284;2023-03-05T11:58:26;18.00;;;10.57;;
67508;SDS011;54354;44.724;11.284;2023-03-05T12:00:55;16.92;;;9.25;;
67508;SDS011;54354;44.724;11.284;2023-03-05T12:03:25;15.70;;;9.05;;
67508;SDS011;54354;44.724;11.284;2023-03-05T12:06:07;15.02;;;9.30;;
67508;SDS011;54354;44.724;11.284;2023-03-05T12:08:40;13.73;;;8.50;;
67508;SDS011;54354;44.724;11.284;2023-03-05T12:11:19;13.57;;;7.73;;
67508;SDS011;54354;44.724;11.284;2023-03-05T12:17:02;12.23;;;6.22;;
67508;SDS011;54354;44.724;11.284;2023-03-05T12:22:28;9.85;;;5.70;;
67508;SDS011;54354;44.724;11.284;2023-03-05T12:25:45;12.40;;;5.50;;
67508;SDS011;54354;44.724;11.284;2023-03-05T12:28:15;11.15;;;4.88;;
67508;SDS011;54354;44.724;11.284;2023-03-05T12:33:40;10.63;;;5.28;;
67508;SDS011;54354;44.724;11.284;2023-03-05T12:38:42;8.90;;;4.32;;
67508;SDS011;54354;44.724;11.284;2023-03-05T12:46:29;11.18;;;6.32;;
67508;SDS011;54354;44.724;11.284;2023-03-05T12:48:57;13.10;;;6.32;;
67508;SDS011;54354;44.724;11.284;2023-03-05T12:51:37;12.80;;;6.68;;
67508;SDS011;54354;44.724;11.284;2023-03-05T12:54:38;9.88;;;5.40;;
67508;SDS011;54354;44.724;11.284;2023-03-05T12:59:47;12.48;;;6.50;;
67508;SDS011;54354;44.724;11.284;2023-03-05T13:02:22;9.98;;;5.55;;
67508;SDS011;54354;44.724;11.284;2023-03-05T13:05:03;13.43;;;5.47;;
67508;SDS011;54354;44.724;11.284;2023-03-05T13:07:37;8.63;;;4.50;;
67508;SDS011;54354;44.724;11.284;2023-03-05T13:10:02;10.38;;;4.50;;
67508;SDS011;54354;44.724;11.284;2023-03-05T13:12:28;9.85;;;5.05;;
67508;SDS011;54354;44.724;11.284;2023-03-05T13:20:46;7.65;;;4.40;;
67508;SDS011;54354;44.724;11.284;2023-03-05T13:28:27;9.45;;;5.55;;
67508;SDS011;54354;44.724;11.284;2023-03-05T13:30:57;8.40;;;5.38;;
67508;SDS011;54354;44.724;11.284;2023-03-05T13:33:31;9.38;;;5.25;;
67508;SDS011;54354;44.724;11.284;2023-03-05T13:35:59;10.25;;;5.53;;
67508;SDS011;54354;44.724;11.284;2023-03-05T13:38:38;8.43;;;4.97;;
67508;SDS011;54354;44.724;11.284;2023-03-05T13:46:21;8.20;;;4.60;;
67508;SDS011;54354;44.724;11.284;2023-03-05T13:48:53;10.30;;;4.55;;
67508;SDS011;54354;44.724;11.284;2023-03-05T13:51:19;9.27;;;5.10;;
67508;SDS011;54354;44.724;11.284;2023-03-05T13:53:45;7.65;;;4.43;;
67508;SDS011;54354;44.724;11.284;2023-03-05T13:56:15;9.57;;;5.13;;
67508;SDS011;54354;44.724;11.284;2023-03-05T13:58:53;8.68;;;4.70;;
67508;SDS011;54354;44.724;11.284;2023-03-05T14:03:53;10.43;;;5.32;;
67508;SDS011;54354;44.724;11.284;2023-03-05T14:06:21;10.18;;;4.95;;
67508;SDS011;54354;44.724;11.284;2023-03-05T14:11:56;11.30;;;5.23;;
67508;SDS011;54354;44.724;11.284;2023-03-05T14:19:51;10.05;;;5.45;;
67508;SDS011;54354;44.724;11.284;2023-03-05T14:25:26;7.65;;;5.25;;
67508;SDS011;54354;44.724;11.284;2023-03-05T14:28:04;9.88;;;5.47;;
67508;SDS011;54354;44.724;11.284;2023-03-05T14:30:45;7.88;;;5.03;;
67508;SDS011;54354;44.724;11.284;2023-03-05T14:33:12;9.80;;;5.32;;
67508;SDS011;54354;44.724;11.284;2023-03-05T14:35:38;13.45;;;5.22;;
67508;SDS011;54354;44.724;11.284;2023-03-05T14:38:04;9.52;;;5.32;;
67508;SDS011;54354;44.724;11.284;2023-03-05T14:40:33;11.32;;;4.90;;
67508;SDS011;54354;44.724;11.284;2023-03-05T14:43:03;10.85;;;5.18;;
67508;SDS011;54354;44.724;11.284;2023-03-05T14:45:31;9.15;;;5.03;;
67508;SDS011;54354;44.724;11.284;2023-03-05T14:48:05;7.40;;;4.90;;
67508;SDS011;54354;44.724;11.284;2023-03-05T14:50:34;8.43;;;5.00;;
67508;SDS011;54354;44.724;11.284;2023-03-05T14:53:16;7.57;;;4.57;;
67508;SDS011;54354;44.724;11.284;2023-03-05T14:55:50;9.50;;;4.90;;
67508;SDS011;54354;44.724;11.284;2023-03-05T14:58:24;10.82;;;5.30;;
67508;SDS011;54354;44.724;11.284;2023-03-05T15:00:53;8.88;;;5.30;;
67508;SDS011;54354;44.724;11.284;2023-03-05T15:03:19;9.65;;;5.50;;
67508;SDS011;54354;44.724;11.284;2023-03-05T15:05:46;12.60;;;5.82;;
67508;SDS011;54354;44.724;11.284;2023-03-05T15:08:15;7.95;;;4.85;;
67508;SDS011;54354;44.724;11.284;2023-03-05T15:10:42;9.23;;;5.68;;
67508;SDS011;54354;44.724;11.284;2023-03-05T15:13:08;8.27;;;5.57;;
67508;SDS011;54354;44.724;11.284;2023-03-05T15:15:41;8.70;;;5.30;;
67508;SDS011;54354;44.724;11.284;2023-03-05T15:18:09;8.57;;;5.75;;
67508;SDS011;54354;44.724;11.284;2023-03-05T15:20:37;10.32;;;4.85;;
67508;SDS011;54354;44.724;11.284;2023-03-05T15:23:03;11.13;;;4.80;;
67508;SDS011;54354;44.724;11.284;2023-03-05T15:25:30;10.48;;;5.10;;
67508;SDS011;54354;44.724;11.284;2023-03-05T15:27:55;9.38;;;5.15;;
67508;SDS011;54354;44.724;11.284;2023-03-05T15:32:52;12.80;;;5.35;;
67508;SDS011;54354;44.724;11.284;2023-03-05T15:35:18;12.38;;;5.35;;
67508;SDS011;54354;44.724;11.284;2023-03-05T15:37:44;10.20;;;5.28;;
67508;SDS011;54354;44.724;11.284;2023-03-05T15:40:12;9.93;;;5.07;;
67508;SDS011;54354;44.724;11.284;2023-03-05T15:42:39;9.25;;;5.22;;
67508;SDS011;54354;44.724;11.284;2023-03-05T15:45:05;9.80;;;5.78;;
67508;SDS011;54354;44.724;11.284;2023-03-05T15:47:31;9.65;;;5.38;;
67508;SDS011;54354;44.724;11.284;2023-03-05T15:49:56;9.45;;;4.97;;
67508;SDS011;54354;44.724;11.284;2023-03-05T15:52:22;9.52;;;5.55;;
67508;SDS011;54354;44.724;11.284;2023-03-05T15:54:48;9.50;;;5.13;;
67508;SDS011;54354;44.724;11.284;2023-03-05T15:57:13;9.43;;;5.18;;
67508;SDS011;54354;44.724;11.284;2023-03-05T15:59:39;12.38;;;5.40;;
67508;SDS011;54354;44.724;11.284;2023-03-05T16:02:05;9.98;;;5.10;;
67508;SDS011;54354;44.724;11.284;2023-03-05T16:04:31;7.28;;;4.72;;
67508;SDS011;54354;44.724;11.284;2023-03-05T16:06:57;12.02;;;5.70;;